Time;durP1;ratioP1;P1;durP2;ratioP2;P2;SDS_P1;SDS_P2;PMS_P1;PMS_P2;Temp;Humidity;BMP_temperature;BMP_pressure;BME280_temperature;BME280_humidity;BME280_pressure;Samples;Min_cycle;Max_cycle;Signal;HPM_P1;HPM_P2
2023/12/25 00:02:24;;;;;;;4.88;4.25;;;9.30;99.90;;;;;;5055866;28;20221;-85
2023/12/25 00:04:50;;;;;;;8.32;1.90;;;9.30;99.90;;;;;;5054952;28;20204;-85
2023/12/25 00:07:15;;;;;;;6.60;2.70;;;9.30;99.90;;;;;;5055599;28;20169;-85
2023/12/25 00:09:41;;;;;;;8.20;2.55;;;9.30;99.90;;;;;;5055397;28;20198;-85
2023/12/25 00:12:07;;;;;;;4.57;2.13;;;9.30;99.90;;;;;;5057529;28;20162;-85
2023/12/25 00:14:33;;;;;;;5.38;2.20;;;9.30;99.90;;;;;;5059103;28;20203;-85
2023/12/25 00:16:59;;;;;;;3.78;1.73;;;9.30;99.90;;;;;;5059645;28;20169;-85
2023/12/25 00:19:25;;;;;;;2.60;1.90;;;9.40;99.90;;;;;;5058440;28;20189;-85
2023/12/25 00:21:50;;;;;;;4.00;2.08;;;9.40;99.90;;;;;;5059633;28;20162;-85
2023/12/25 00:24:16;;;;;;;4.53;1.88;;;9.40;99.90;;;;;;5059131;28;20224;-85
2023/12/25 00:26:42;;;;;;;6.32;2.45;;;9.40;99.90;;;;;;5058358;28;20185;-85
2023/12/25 00:29:09;;;;;;;5.57;1.92;;;9.30;99.90;;;;;;5058655;28;20219;-85
2023/12/25 00:31:34;;;;;;;3.35;1.65;;;9.30;99.90;;;;;;5058536;28;20192;-86
2023/12/25 00:34:00;;;;;;;4.20;1.95;;;9.30;99.90;;;;;;5058864;28;20174;-86
2023/12/25 00:36:26;;;;;;;3.72;2.08;;;9.30;99.90;;;;;;5058423;28;20197;-85
2023/12/25 00:38:51;;;;;;;5.05;1.90;;;9.30;99.90;;;;;;5058309;28;20237;-85
2023/12/25 00:41:17;;;;;;;6.32;2.33;;;9.30;99.90;;;;;;5058939;28;20177;-85
2023/12/25 00:43:43;;;;;;;5.65;2.00;;;9.20;99.90;;;;;;5058338;28;20197;-84
2023/12/25 00:46:08;;;;;;;6.25;2.00;;;9.30;99.90;;;;;;5076319;28;20166;-85
2023/12/25 00:48:34;;;;;;;5.00;2.25;;;9.30;99.90;;;;;;5058180;28;20197;-85
2023/12/25 00:50:59;;;;;;;4.95;1.80;;;9.30;99.90;;;;;;5076046;28;20184;-85
2023/12/25 00:53:25;;;;;;;7.32;1.90;;;9.30;99.90;;;;;;5059208;28;20177;-85
2023/12/25 00:55:51;;;;;;;4.75;1.92;;;9.20;99.90;;;;;;5058576;28;20227;-85
2023/12/25 00:58:16;;;;;;;3.85;1.80;;;9.20;99.90;;;;;;5058260;28;20200;-86
2023/12/25 01:00:42;;;;;;;6.97;2.08;;;9.10;99.90;;;;;;5057924;28;20181;-86
2023/12/25 01:03:08;;;;;;;4.30;2.10;;;9.10;99.90;;;;;;5057687;28;20205;-86
2023/12/25 01:05:33;;;;;;;3.33;1.80;;;9.10;99.90;;;;;;5058761;28;20157;-86
2023/12/25 01:07:59;;;;;;;4.70;1.95;;;9.10;99.90;;;;;;5075655;28;20227;-86
2023/12/25 01:10:25;;;;;;;2.05;1.70;;;9.00;99.90;;;;;;5058559;28;20180;-86
2023/12/25 01:12:50;;;;;;;3.47;2.00;;;9.00;99.90;;;;;;5057684;28;20277;-85
2023/12/25 01:15:16;;;;;;;4.97;2.30;;;9.00;99.90;;;;;;5057883;28;20189;-85
2023/12/25 01:17:41;;;;;;;5.80;2.00;;;9.00;99.90;;;;;;5057532;28;20180;-86
2023/12/25 01:20:07;;;;;;;2.97;1.80;;;8.90;99.90;;;;;;5075431;28;20202;-86
2023/12/25 01:22:33;;;;;;;4.15;1.75;;;8.90;99.90;;;;;;5057047;28;20347;-86
2023/12/25 01:24:59;;;;;;;4.25;2.13;;;8.90;99.90;;;;;;5057628;28;20268;-86
2023/12/25 01:27:24;;;;;;;5.18;1.95;;;8.90;99.90;;;;;;5057582;28;20239;-86
2023/12/25 01:29:50;;;;;;;3.63;1.90;;;8.90;99.90;;;;;;5057101;28;20217;-85
2023/12/25 01:32:16;;;;;;;4.95;1.88;;;8.90;99.90;;;;;;5057246;28;20247;-86
2023/12/25 01:34:41;;;;;;;5.30;1.77;;;8.90;99.90;;;;;;5058319;28;20235;-86
2023/12/25 01:37:07;;;;;;;5.18;2.00;;;8.90;99.90;;;;;;5057258;28;20628;-85
2023/12/25 01:39:33;;;;;;;3.97;1.90;;;8.90;99.90;;;;;;5057156;28;20201;-85
2023/12/25 01:41:58;;;;;;;4.82;2.03;;;9.00;99.90;;;;;;5057270;28;20177;-86
2023/12/25 01:44:24;;;;;;;6.43;2.00;;;8.90;99.90;;;;;;5057050;28;20296;-86
2023/12/25 01:46:50;;;;;;;4.22;1.73;;;8.90;99.90;;;;;;5057137;28;20178;-85
2023/12/25 01:49:16;;;;;;;3.75;1.80;;;8.90;99.90;;;;;;5057659;28;20214;-85
2023/12/25 01:51:42;;;;;;;3.60;1.98;;;8.90;99.90;;;;;;5057285;28;20170;-85
2023/12/25 01:54:07;;;;;;;7.85;2.10;;;8.90;99.90;;;;;;5057696;28;20181;-86
2023/12/25 01:56:33;;;;;;;4.95;2.00;;;8.90;99.90;;;;;;5056971;28;20178;-86
2023/12/25 01:58:59;;;;;;;8.82;2.45;;;8.90;99.90;;;;;;5056765;28;20202;-86
2023/12/25 02:33:19;;;;;;;3.63;1.95;;;8.90;99.90;;;;;;5091991;28;20287;-75
2023/12/25 02:35:44;;;;;;;3.17;2.00;;;8.90;99.90;;;;;;5068216;28;20178;-75
2023/12/25 02:38:10;;;;;;;2.83;1.83;;;8.80;99.90;;;;;;5086158;28;20174;-76
2023/12/25 02:40:39;;;;;;;5.15;2.08;;;8.80;99.90;;;;;;5071474;28;20184;-76
2023/12/25 02:43:08;;;;;;;5.65;1.98;;;8.80;99.90;;;;;;5080310;28;20197;-76
2023/12/25 02:45:33;;;;;;;3.50;2.03;;;8.80;99.90;;;;;;5069197;28;20799;-75
2023/12/25 02:47:59;;;;;;;3.38;2.05;;;8.80;99.90;;;;;;5074068;28;20200;-76
2023/12/25 02:50:25;;;;;;;5.80;2.28;;;8.80;99.90;;;;;;5072602;28;20181;-76
2023/12/25 02:52:50;;;;;;;3.13;1.85;;;8.80;99.90;;;;;;5079614;28;20227;-76
2023/12/25 02:55:16;;;;;;;8.10;2.63;;;8.80;99.90;;;;;;5072408;28;20625;-76
2023/12/25 02:57:41;;;;;;;4.22;2.00;;;8.80;99.90;;;;;;5073409;28;20213;-76
2023/12/25 03:00:07;;;;;;;3.90;1.83;;;8.80;99.90;;;;;;5075102;28;20177;-76
2023/12/25 03:02:33;;;;;;;3.42;1.75;;;8.80;99.90;;;;;;5067958;28;20811;-75
2023/12/25 03:04:59;;;;;;;3.05;1.90;;;8.80;99.90;;;;;;5072227;28;20173;-75
2023/12/25 03:07:25;;;;;;;3.55;2.15;;;8.80;99.90;;;;;;5068079;28;20204;-75
2023/12/25 03:09:50;;;;;;;2.75;1.98;;;8.80;99.90;;;;;;5068507;28;20171;-75
2023/12/25 03:12:16;;;;;;;3.22;1.92;;;8.80;99.90;;;;;;5072082;28;20197;-75
2023/12/25 03:14:42;;;;;;;3.05;1.85;;;8.80;99.90;;;;;;5068023;28;20177;-75
2023/12/25 03:17:07;;;;;;;4.97;2.00;;;8.80;99.90;;;;;;5071995;28;20196;-75
2023/12/25 03:19:33;;;;;;;4.22;1.98;;;8.80;99.90;;;;;;5073412;28;20184;-76
2023/12/25 03:21:58;;;;;;;2.75;1.88;;;8.80;99.90;;;;;;5074043;28;20193;-76
2023/12/25 03:24:24;;;;;;;3.10;1.90;;;8.80;99.90;;;;;;5071945;28;20258;-75
2023/12/25 03:26:50;;;;;;;3.28;1.85;;;8.80;99.90;;;;;;5067825;28;20196;-75
2023/12/25 03:29:15;;;;;;;2.55;1.70;;;8.70;99.90;;;;;;5071893;28;20169;-75
2023/12/25 03:31:41;;;;;;;2.25;1.48;;;8.80;99.90;;;;;;5067824;28;20209;-75
2023/12/25 03:34:06;;;;;;;1.90;1.70;;;8.80;99.90;;;;;;5074703;28;20217;-76
2023/12/25 03:36:32;;;;;;;3.17;1.67;;;8.80;99.90;;;;;;5076723;28;20196;-76
2023/12/25 03:38:57;;;;;;;1.50;1.30;;;8.80;99.90;;;;;;5077585;28;20178;-76
2023/12/25 03:41:23;;;;;;;3.05;1.45;;;8.80;99.90;;;;;;5079457;28;20184;-76
2023/12/25 03:43:48;;;;;;;1.73;1.63;;;8.80;99.90;;;;;;5079590;28;20201;-77
2023/12/25 03:46:14;;;;;;;2.40;1.40;;;8.80;99.90;;;;;;5083438;28;20224;-77
2023/12/25 03:48:39;;;;;;;2.03;1.20;;;8.80;99.90;;;;;;5086122;28;20634;-77
2023/12/25 03:51:05;;;;;;;2.25;1.40;;;8.80;99.90;;;;;;5084650;28;20188;-77
2023/12/25 03:53:31;;;;;;;2.08;1.38;;;8.80;99.90;;;;;;5083449;28;20197;-77
2023/12/25 03:56:04;;;;;;;1.58;1.40;;;8.80;99.90;;;;;;5084657;28;20188;-76
2023/12/25 03:58:29;;;;;;;2.42;1.60;;;8.80;99.90;;;;;;5081968;28;20231;-76
2023/12/25 04:00:55;;;;;;;1.38;1.20;;;8.80;99.90;;;;;;5082385;28;20186;-76
2023/12/25 04:03:20;;;;;;;1.35;1.30;;;8.80;99.90;;;;;;5082468;28;20201;-76
2023/12/25 04:05:46;;;;;;;1.70;1.60;;;8.80;99.90;;;;;;5081767;28;20254;-77
2023/12/25 04:08:11;;;;;;;4.18;1.73;;;8.80;99.90;;;;;;5080433;28;20170;-77
2023/12/25 04:10:37;;;;;;;3.78;1.65;;;8.70;99.90;;;;;;5082629;28;20272;-77
2023/12/25 04:13:03;;;;;;;2.47;1.50;;;8.80;99.90;;;;;;5081513;28;20197;-77
2023/12/25 04:15:28;;;;;;;1.70;1.60;;;8.70;99.90;;;;;;5081476;28;20189;-77
2023/12/25 04:17:54;;;;;;;1.63;1.52;;;8.80;99.90;;;;;;5079990;28;20231;-76
2023/12/25 04:20:19;;;;;;;1.60;1.50;;;8.80;99.90;;;;;;5075215;28;20178;-75
2023/12/25 04:22:47;;;;;;;3.80;1.50;;;8.80;99.90;;;;;;5075007;28;20197;-75
2023/12/25 04:25:12;;;;;;;2.83;1.70;;;8.80;99.90;;;;;;5076425;28;20320;-75
2023/12/25 04:27:38;;;;;;;2.45;1.65;;;8.80;99.90;;;;;;5075160;28;20270;-75
2023/12/25 04:30:04;;;;;;;3.42;1.48;;;8.80;99.90;;;;;;5075589;28;20258;-75
2023/12/25 04:32:30;;;;;;;2.35;1.60;;;8.80;99.90;;;;;;5075033;28;20220;-75
2023/12/25 04:34:55;;;;;;;1.98;1.48;;;8.70;99.90;;;;;;5076257;28;20173;-75
2023/12/25 04:37:21;;;;;;;3.08;1.70;;;8.80;99.90;;;;;;5076774;28;20166;-75
2023/12/25 04:39:46;;;;;;;1.15;1.10;;;8.80;99.90;;;;;;5075020;28;20223;-75
2023/12/25 04:42:12;;;;;;;1.35;1.25;;;8.80;99.90;;;;;;5076332;28;20215;-75
2023/12/25 04:44:37;;;;;;;1.75;1.13;;;8.80;99.90;;;;;;5074769;28;20197;-75
2023/12/25 04:47:03;;;;;;;3.15;1.50;;;8.80;99.90;;;;;;5075190;28;20731;-75
2023/12/25 04:49:29;;;;;;;2.28;1.60;;;8.80;99.90;;;;;;5075194;28;20580;-75
2023/12/25 04:51:54;;;;;;;0.95;0.95;;;8.80;99.90;;;;;;5074648;28;20193;-75
2023/12/25 04:54:20;;;;;;;1.23;1.13;;;8.80;99.90;;;;;;5074680;28;20195;-75
2023/12/25 04:56:45;;;;;;;1.45;1.35;;;8.80;99.90;;;;;;5073778;28;20550;-75
2023/12/25 04:59:11;;;;;;;2.13;1.20;;;8.80;99.90;;;;;;5075053;28;20173;-75
2023/12/25 05:01:37;;;;;;;2.67;1.20;;;8.80;99.90;;;;;;5075697;28;20177;-75
2023/12/25 05:04:04;;;;;;;1.42;1.33;;;8.70;99.90;;;;;;5074508;28;20224;-75
2023/12/25 05:06:29;;;;;;;2.80;1.00;;;8.80;99.90;;;;;;5075781;28;20169;-75
2023/12/25 05:08:55;;;;;;;1.63;1.15;;;8.80;99.90;;;;;;5074728;28;20170;-75
2023/12/25 05:11:23;;;;;;;1.52;1.27;;;8.80;99.90;;;;;;5074403;28;20223;-75
2023/12/25 05:13:49;;;;;;;1.30;1.20;;;8.80;99.90;;;;;;5074527;28;20205;-75
2023/12/25 05:16:14;;;;;;;1.23;1.15;;;8.80;99.90;;;;;;5075528;28;20177;-75
2023/12/25 05:18:40;;;;;;;1.67;1.00;;;8.80;99.90;;;;;;5074209;28;20188;-75
2023/12/25 05:21:09;;;;;;;1.48;1.05;;;8.80;99.90;;;;;;5075707;28;20178;-75
2023/12/25 05:23:34;;;;;;;1.48;0.98;;;8.80;99.90;;;;;;5073985;28;20214;-75
2023/12/25 05:26:00;;;;;;;0.95;0.93;;;8.80;99.90;;;;;;5077420;28;20625;-76
2023/12/25 05:28:25;;;;;;;0.80;0.80;;;8.80;99.90;;;;;;5077349;28;20173;-76
2023/12/25 05:30:51;;;;;;;1.52;1.27;;;8.80;99.90;;;;;;5077237;28;20177;-76
2023/12/25 05:33:17;;;;;;;1.08;0.98;;;8.80;99.90;;;;;;5077962;28;20231;-76
2023/12/25 05:35:43;;;;;;;0.85;0.85;;;8.80;99.90;;;;;;5077455;28;20185;-76
2023/12/25 05:38:08;;;;;;;3.95;0.90;;;8.80;99.90;;;;;;5078902;28;20223;-76
2023/12/25 05:40:34;;;;;;;0.95;0.95;;;8.80;99.90;;;;;;5077925;28;20324;-76
2023/12/25 05:42:59;;;;;;;1.17;1.08;;;8.80;99.90;;;;;;5077947;28;20205;-76
2023/12/25 05:45:25;;;;;;;0.95;0.95;;;8.80;99.90;;;;;;5073782;28;20591;-76
2023/12/25 05:47:50;;;;;;;0.82;0.82;;;8.80;99.90;;;;;;5073657;28;20170;-75
2023/12/25 05:50:16;;;;;;;2.92;1.00;;;8.90;99.90;;;;;;5071874;28;20223;-76
2023/12/25 05:52:41;;;;;;;1.02;1.02;;;8.90;99.90;;;;;;5057215;28;20711;-75
2023/12/25 05:55:07;;;;;;;0.80;0.80;;;8.90;99.90;;;;;;5057732;28;20182;-75
2023/12/25 05:57:33;;;;;;;1.25;0.80;;;8.90;99.90;;;;;;5057752;28;20173;-75
2023/12/25 05:59:58;;;;;;;1.20;0.90;;;8.90;99.90;;;;;;5057089;28;20177;-75
2023/12/25 06:02:24;;;;;;;0.73;0.73;;;8.90;99.90;;;;;;5074716;28;20657;-75
2023/12/25 06:04:49;;;;;;;0.80;0.80;;;9.00;99.90;;;;;;5056768;28;20174;-75
2023/12/25 06:07:15;;;;;;;1.08;0.90;;;8.90;99.90;;;;;;5057992;28;20217;-76
2023/12/25 06:09:40;;;;;;;2.17;0.98;;;9.00;99.90;;;;;;5081328;28;20244;-76
2023/12/25 06:12:06;;;;;;;0.90;0.90;;;9.00;99.90;;;;;;5063300;28;20194;-76
2023/12/25 06:14:31;;;;;;;1.05;1.00;;;9.00;99.90;;;;;;5062604;28;20225;-76
2023/12/25 06:16:57;;;;;;;0.90;0.90;;;9.00;99.90;;;;;;5062589;28;20189;-77
2023/12/25 06:19:23;;;;;;;1.75;1.00;;;9.10;99.90;;;;;;5061570;28;20182;-77
2023/12/25 06:21:49;;;;;;;0.68;0.68;;;9.00;99.90;;;;;;5061566;28;20260;-76
2023/12/25 06:24:15;;;;;;;1.08;0.82;;;9.00;99.90;;;;;;5062479;28;20236;-76
2023/12/25 06:26:40;;;;;;;1.65;0.80;;;9.10;99.90;;;;;;5063019;28;20174;-76
2023/12/25 06:29:06;;;;;;;1.67;0.85;;;9.10;99.90;;;;;;5062914;28;20169;-76
2023/12/25 06:31:31;;;;;;;0.60;0.60;;;9.10;99.90;;;;;;5062990;28;20196;-76
2023/12/25 06:33:57;;;;;;;1.73;0.90;;;9.10;99.90;;;;;;5061568;28;20188;-75
2023/12/25 06:36:23;;;;;;;0.70;0.70;;;9.10;99.90;;;;;;5059754;28;20178;-76
2023/12/25 06:38:49;;;;;;;1.42;0.90;;;9.10;99.90;;;;;;5063356;28;20185;-76
2023/12/25 06:41:14;;;;;;;0.70;0.70;;;9.10;99.90;;;;;;5061705;28;20190;-76
2023/12/25 06:43:40;;;;;;;0.70;0.70;;;9.20;99.90;;;;;;5062559;28;20203;-76
2023/12/25 06:46:06;;;;;;;0.80;0.80;;;9.20;99.90;;;;;;5063111;28;20178;-76
2023/12/25 06:48:32;;;;;;;0.80;0.70;;;9.20;99.90;;;;;;5063189;28;20187;-76
2023/12/25 06:50:57;;;;;;;0.80;0.80;;;9.10;99.90;;;;;;5080486;28;20177;-76
2023/12/25 06:53:23;;;;;;;1.85;1.00;;;9.20;99.90;;;;;;5064299;28;20197;-76
2023/12/25 06:55:48;;;;;;;2.20;0.82;;;9.20;99.90;;;;;;5063881;28;20173;-76
2023/12/25 06:58:14;;;;;;;1.02;0.65;;;9.10;99.90;;;;;;5062937;28;20186;-76
2023/12/25 07:00:40;;;;;;;1.02;0.73;;;9.10;99.90;;;;;;5064303;28;20219;-76
2023/12/25 07:03:06;;;;;;;0.80;0.65;;;9.10;99.90;;;;;;5062820;28;20197;-76
2023/12/25 07:05:33;;;;;;;1.45;0.70;;;9.10;99.90;;;;;;5063016;28;20211;-76
2023/12/25 07:07:58;;;;;;;0.80;0.50;;;9.10;99.90;;;;;;5058563;28;20177;-76
2023/12/25 07:10:24;;;;;;;0.50;0.50;;;9.10;99.90;;;;;;5062647;28;20697;-76
2023/12/25 07:12:50;;;;;;;0.52;0.52;;;9.10;99.90;;;;;;5057417;28;20201;-75
2023/12/25 07:15:16;;;;;;;0.45;0.45;;;9.10;99.90;;;;;;5063496;28;20206;-76
2023/12/25 07:17:41;;;;;;;0.38;0.35;;;9.10;99.90;;;;;;5056003;28;20181;-75
2023/12/25 07:20:08;;;;;;;0.60;0.60;;;9.10;99.90;;;;;;5054949;28;20185;-75
2023/12/25 07:22:33;;;;;;;1.60;0.63;;;9.10;99.90;;;;;;5073141;28;20190;-75
2023/12/25 07:25:04;;;;;;;0.50;0.50;;;9.10;99.90;;;;;;5058029;28;20203;-76
2023/12/25 07:27:31;;;;;;;1.30;0.47;;;9.10;99.90;;;;;;5062714;28;20192;-76
2023/12/25 07:29:56;;;;;;;0.47;0.47;;;9.10;99.90;;;;;;5062829;28;20177;-76
2023/12/25 07:32:22;;;;;;;0.82;0.55;;;9.10;99.90;;;;;;5058024;28;20213;-75
2023/12/25 07:34:47;;;;;;;0.20;0.20;;;9.10;99.90;;;;;;5056092;28;20304;-75
2023/12/25 07:37:13;;;;;;;2.10;2.00;;;9.10;99.90;;;;;;5055976;28;20185;-75
2023/12/25 07:39:40;;;;;;;19.38;16.90;;;9.10;99.90;;;;;;5060669;28;20174;-76
2023/12/25 07:42:06;;;;;;;15.50;13.98;;;9.10;99.90;;;;;;5080983;28;20276;-76
2023/12/25 07:44:31;;;;;;;17.00;15.60;;;9.20;99.90;;;;;;5062795;28;20229;-77
2023/12/25 07:46:57;;;;;;;36.85;33.30;;;9.10;99.90;;;;;;5062673;28;20181;-77
2023/12/25 07:49:22;;;;;;;17.27;15.77;;;9.20;99.90;;;;;;5062462;28;20177;-77
2023/12/25 07:51:48;;;;;;;7.53;7.03;;;9.10;99.90;;;;;;5062703;28;20223;-76
2023/12/25 07:54:13;;;;;;;2.97;2.88;;;9.20;99.90;;;;;;5063580;28;20248;-77
2023/12/25 07:56:39;;;;;;;10.23;9.48;;;9.20;99.90;;;;;;5064281;28;20241;-77
2023/12/25 07:59:04;;;;;;;40.85;33.67;;;9.20;99.90;;;;;;5063697;28;20200;-77
2023/12/25 08:01:31;;;;;;;4.18;3.85;;;9.20;99.90;;;;;;5064180;28;20192;-77
2023/12/25 08:03:56;;;;;;;22.15;18.67;;;9.20;99.90;;;;;;5061535;28;20301;-77
2023/12/25 08:06:22;;;;;;;28.80;24.05;;;9.20;99.90;;;;;;5063367;28;20201;-77
2023/12/25 08:08:48;;;;;;;21.00;18.80;;;9.20;99.90;;;;;;5062618;28;20189;-77
2023/12/25 08:11:17;;;;;;;8.77;7.97;;;9.30;99.90;;;;;;5062324;28;20674;-77
2023/12/25 08:13:42;;;;;;;5.25;4.85;;;9.30;99.90;;;;;;5061649;28;20201;-76
2023/12/25 08:16:08;;;;;;;6.25;5.65;;;9.30;99.90;;;;;;5061562;28;20200;-76
2023/12/25 08:18:34;;;;;;;10.40;9.45;;;9.30;99.90;;;;;;5061516;28;20272;-76
2023/12/25 08:20:59;;;;;;;9.52;8.63;;;9.30;99.90;;;;;;5056818;28;20260;-75
2023/12/25 08:23:25;;;;;;;9.57;8.57;;;9.30;99.90;;;;;;5054798;28;20252;-75
2023/12/25 08:25:50;;;;;;;54.30;42.63;;;9.40;99.90;;;;;;5055081;28;20181;-75
2023/12/25 08:28:16;;;;;;;23.42;18.65;;;9.40;99.90;;;;;;5055643;28;20166;-75
2023/12/25 08:30:41;;;;;;;9.40;8.40;;;9.30;99.90;;;;;;5054681;28;20174;-75
2023/12/25 08:33:08;;;;;;;50.95;41.67;;;9.40;99.90;;;;;;5057169;28;20299;-75
2023/12/25 08:35:33;;;;;;;50.10;36.95;;;9.30;99.90;;;;;;5059482;28;20207;-75
2023/12/25 08:37:59;;;;;;;89.30;59.33;;;9.40;99.90;;;;;;5058751;28;20201;-75
2023/12/25 08:40:25;;;;;;;45.60;34.45;;;9.30;99.90;;;;;;5058806;28;20169;-75
2023/12/25 08:42:51;;;;;;;13.73;12.05;;;9.40;99.90;;;;;;5076329;28;20284;-75
2023/12/25 08:45:17;;;;;;;14.02;12.43;;;9.40;99.90;;;;;;5058752;28;20212;-75
2023/12/25 08:47:43;;;;;;;10.48;9.38;;;9.40;99.90;;;;;;5058076;28;20180;-75
2023/12/25 08:50:08;;;;;;;21.98;19.55;;;9.40;99.90;;;;;;5058122;28;20178;-75
2023/12/25 08:52:34;;;;;;;23.20;19.50;;;9.40;99.90;;;;;;5057859;28;20205;-75
2023/12/25 08:55:00;;;;;;;11.93;10.65;;;9.40;99.90;;;;;;5058001;28;20268;-75
2023/12/25 08:57:26;;;;;;;5.15;4.75;;;9.40;99.90;;;;;;5057871;28;20209;-75
2023/12/25 08:59:51;;;;;;;3.13;2.92;;;9.40;99.90;;;;;;5058028;28;20208;-76
2023/12/25 09:02:19;;;;;;;7.28;6.55;;;9.40;99.90;;;;;;5057892;28;20285;-77
2023/12/25 09:04:45;;;;;;;1.65;1.55;;;9.40;99.90;;;;;;5058105;28;20201;-76
2023/12/25 09:07:11;;;;;;;3.92;3.63;;;9.40;99.90;;;;;;5075805;28;20170;-76
2023/12/25 09:09:36;;;;;;;1.00;1.00;;;9.40;99.90;;;;;;5058061;28;20174;-75
2023/12/25 09:12:02;;;;;;;1.10;1.00;;;9.40;99.90;;;;;;5058608;28;20194;-75
2023/12/25 09:14:28;;;;;;;0.65;0.65;;;9.40;99.90;;;;;;5058066;28;20177;-75
2023/12/25 09:16:53;;;;;;;2.13;2.03;;;9.40;99.90;;;;;;5057796;28;20192;-75
2023/12/25 09:19:19;;;;;;;1.45;1.45;;;9.40;99.90;;;;;;5058043;28;20181;-76
2023/12/25 09:21:44;;;;;;;1.80;1.70;;;9.50;99.90;;;;;;5057509;28;20261;-75
2023/12/25 09:24:10;;;;;;;1.15;0.80;;;9.50;99.90;;;;;;5057549;28;20673;-75
2023/12/25 09:26:35;;;;;;;1.10;1.10;;;9.40;99.90;;;;;;5058360;28;20216;-76
2023/12/25 09:29:01;;;;;;;2.63;2.53;;;9.50;99.90;;;;;;5057636;28;20177;-79
2023/12/25 09:31:26;;;;;;;0.90;0.90;;;9.50;99.90;;;;;;5057540;28;20224;-76
2023/12/25 09:33:54;;;;;;;13.73;12.48;;;9.60;99.90;;;;;;5057513;28;20212;-76
2023/12/25 09:36:26;;;;;;;1.40;1.40;;;9.60;99.90;;;;;;5058321;28;20178;-77
2023/12/25 09:38:51;;;;;;;1.17;1.17;;;9.60;99.90;;;;;;5075695;28;20245;-76
2023/12/25 09:41:18;;;;;;;2.45;1.90;;;9.60;99.90;;;;;;5057096;28;20204;-76
2023/12/25 09:43:57;;;;;;;1.60;1.60;;;9.70;99.90;;;;;;5057419;28;20362;-76
2023/12/25 09:46:24;;;;;;;1.20;1.20;;;9.60;99.90;;;;;;5074969;28;20169;-76
2023/12/25 09:48:50;;;;;;;1.20;1.20;;;9.70;99.90;;;;;;5057278;28;20173;-76
2023/12/25 09:51:18;;;;;;;1.30;1.20;;;9.70;99.90;;;;;;5057009;28;20173;-76
2023/12/25 09:53:44;;;;;;;0.90;0.90;;;9.60;99.90;;;;;;5056852;28;20194;-76
2023/12/25 09:56:12;;;;;;;1.38;1.30;;;9.60;99.90;;;;;;5057735;28;20178;-76
2023/12/25 09:58:40;;;;;;;1.10;1.10;;;9.60;99.90;;;;;;5057029;28;20517;-77
2023/12/25 10:01:06;;;;;;;1.27;1.20;;;9.70;99.90;;;;;;5057025;28;20193;-77
2023/12/25 10:03:33;;;;;;;0.70;0.70;;;9.70;99.90;;;;;;5074382;28;20206;-77
2023/12/25 10:05:59;;;;;;;0.75;0.75;;;9.70;99.90;;;;;;5057035;28;20228;-75
2023/12/25 10:08:24;;;;;;;0.80;0.80;;;9.70;99.90;;;;;;5056969;28;20649;-76
2023/12/25 10:10:56;;;;;;;1.45;1.45;;;9.70;99.90;;;;;;5057035;28;20169;-75
2023/12/25 10:14:16;;;;;;;1.30;0.85;;;9.70;99.90;;;;;;5056782;28;20197;-75
2023/12/25 10:16:41;;;;;;;1.02;1.02;;;9.70;99.90;;;;;;5056447;28;20172;-75
2023/12/25 10:19:07;;;;;;;0.80;0.80;;;9.80;99.90;;;;;;5057269;28;20182;-75
2023/12/25 10:21:43;;;;;;;0.85;0.82;;;9.80;99.90;;;;;;5057155;28;20268;-75
2023/12/25 10:24:16;;;;;;;1.30;1.20;;;9.70;99.90;;;;;;5057337;28;20246;-76
2023/12/25 10:26:44;;;;;;;0.40;0.40;;;9.80;99.90;;;;;;5056336;28;20224;-76
2023/12/25 10:29:10;;;;;;;0.90;0.90;;;9.70;99.90;;;;;;5059455;28;20180;-75
2023/12/25 10:31:38;;;;;;;0.63;0.63;;;9.80;99.90;;;;;;5055874;28;20261;-75
2023/12/25 10:37:20;;;;;;;0.50;0.50;;;9.80;99.90;;;;;;5074606;28;20268;-76
2023/12/25 10:39:46;;;;;;;0.55;0.40;;;9.90;99.90;;;;;;5055987;28;20184;-75
2023/12/25 10:42:14;;;;;;;0.47;0.47;;;9.90;99.90;;;;;;5055968;28;20186;-76
2023/12/25 10:44:46;;;;;;;0.90;0.47;;;10.00;99.90;;;;;;5055911;28;20201;-76
2023/12/25 10:47:14;;;;;;;0.68;0.68;;;9.90;99.90;;;;;;5056042;28;20173;-76
2023/12/25 10:49:42;;;;;;;1.08;1.08;;;10.00;99.90;;;;;;5061864;28;20275;-77
2023/12/25 10:52:10;;;;;;;1.15;1.15;;;10.00;99.90;;;;;;5063890;28;20197;-78
2023/12/25 10:54:36;;;;;;;1.00;1.00;;;10.10;99.90;;;;;;5064024;28;20169;-77
2023/12/25 10:57:05;;;;;;;1.80;1.70;;;10.10;99.90;;;;;;5072489;28;20211;-77
2023/12/25 10:59:37;;;;;;;63.58;43.20;;;10.20;99.90;;;;;;5069665;28;20184;-75
2023/12/25 11:02:06;;;;;;;6.75;5.82;;;10.20;99.90;;;;;;5062945;28;20259;-76
2023/12/25 11:04:33;;;;;;;3.13;2.92;;;10.20;99.90;;;;;;5062724;28;20201;-76
2023/12/25 11:07:00;;;;;;;2.58;2.47;;;10.20;99.90;;;;;;5063502;28;20177;-76
2023/12/25 11:09:26;;;;;;;2.17;2.08;;;10.20;99.90;;;;;;5057092;28;20256;-77
2023/12/25 11:11:52;;;;;;;9.57;8.88;;;10.20;99.90;;;;;;5056007;28;20864;-76
2023/12/25 11:14:17;;;;;;;2.80;2.60;;;10.20;99.90;;;;;;5056012;28;20648;-76
2023/12/25 11:16:43;;;;;;;9.35;7.57;;;10.20;99.90;;;;;;5055639;28;20177;-77
2023/12/25 11:19:09;;;;;;;2.45;2.20;;;10.20;99.90;;;;;;5073611;28;20194;-77
2023/12/25 11:21:35;;;;;;;2.05;1.95;;;10.20;99.90;;;;;;5055668;28;20205;-76
2023/12/25 11:24:02;;;;;;;1.30;1.30;;;10.30;99.90;;;;;;5073432;28;20240;-77
2023/12/25 11:26:31;;;;;;;1.33;1.30;;;10.30;99.90;;;;;;5056351;28;20291;-77
2023/12/25 11:29:06;;;;;;;0.90;0.90;;;10.30;99.90;;;;;;5055950;28;20242;-77
2023/12/25 11:31:44;;;;;;;1.10;1.10;;;10.30;99.90;;;;;;5055400;28;20181;-76
2023/12/25 11:34:24;;;;;;;2.45;2.35;;;10.30;99.90;;;;;;5055487;28;20188;-76
2023/12/25 11:36:55;;;;;;;4.15;3.85;;;10.40;99.90;;;;;;5055805;28;20177;-77
2023/12/25 11:39:23;;;;;;;7.18;6.47;;;10.50;99.90;;;;;;5073900;28;20270;-77
2023/12/25 11:41:49;;;;;;;4.32;3.92;;;10.60;99.90;;;;;;5056371;28;20219;-76
2023/12/25 11:44:34;;;;;;;1.30;1.30;;;10.60;99.90;;;;;;5055372;28;20684;-78
2023/12/25 11:47:02;;;;;;;1.85;1.75;;;10.50;99.90;;;;;;5057468;28;20162;-77
2023/12/25 11:49:28;;;;;;;4.68;4.28;;;10.40;99.90;;;;;;5059657;28;20177;-77
2023/12/25 11:51:53;;;;;;;1.75;1.75;;;10.30;99.90;;;;;;5058868;28;20247;-76
2023/12/25 11:54:19;;;;;;;1.75;1.70;;;10.30;99.90;;;;;;5055254;28;20166;-76
2023/12/25 11:56:45;;;;;;;1.02;1.02;;;10.30;99.90;;;;;;5055232;28;20186;-76
2023/12/25 11:59:12;;;;;;;0.80;0.80;;;10.20;99.90;;;;;;5057488;28;20269;-76
2023/12/25 12:01:39;;;;;;;1.10;1.10;;;10.20;99.90;;;;;;5074390;28;20195;-76
2023/12/25 12:04:05;;;;;;;1.30;1.30;;;10.20;99.90;;;;;;5054873;28;20237;-75
2023/12/25 12:06:31;;;;;;;1.10;1.10;;;10.20;99.90;;;;;;5057668;28;20208;-76
2023/12/25 12:08:56;;;;;;;0.80;0.80;;;10.20;99.90;;;;;;5059524;28;20260;-76
2023/12/25 12:11:22;;;;;;;1.20;1.20;;;10.20;99.90;;;;;;5077511;28;20170;-76
2023/12/25 12:13:48;;;;;;;1.33;1.30;;;10.10;99.90;;;;;;5077200;28;20205;-76
2023/12/25 12:16:13;;;;;;;0.55;0.55;;;10.20;99.90;;;;;;5059011;28;20185;-76
2023/12/25 12:18:39;;;;;;;0.73;0.73;;;10.20;99.90;;;;;;5059240;28;20691;-76
2023/12/25 12:21:05;;;;;;;0.55;0.55;;;10.20;99.90;;;;;;5059228;28;20181;-76
2023/12/25 12:23:31;;;;;;;0.60;0.60;;;10.30;99.90;;;;;;5058846;28;20217;-76
2023/12/25 12:25:57;;;;;;;0.50;0.50;;;10.30;99.90;;;;;;5058721;28;20173;-76
2023/12/25 12:28:23;;;;;;;0.80;0.52;;;10.30;99.90;;;;;;5059545;28;20181;-76
2023/12/25 12:30:49;;;;;;;0.60;0.60;;;10.30;99.90;;;;;;5058708;28;20173;-76
2023/12/25 12:33:15;;;;;;;0.40;0.40;;;10.20;99.90;;;;;;5058490;28;20248;-76
2023/12/25 12:35:41;;;;;;;0.60;0.60;;;10.20;99.90;;;;;;5059224;28;20181;-76
2023/12/25 12:38:10;;;;;;;1.75;0.70;;;10.30;99.90;;;;;;5076809;28;20174;-75
2023/12/25 12:40:35;;;;;;;0.50;0.50;;;10.20;99.90;;;;;;5058566;28;20182;-75
2023/12/25 12:43:01;;;;;;;0.45;0.45;;;10.20;99.90;;;;;;5076632;28;20228;-76
2023/12/25 12:45:26;;;;;;;0.47;0.47;;;10.20;99.90;;;;;;5058736;28;20181;-76
2023/12/25 12:47:54;;;;;;;0.50;0.50;;;10.20;99.90;;;;;;5076269;28;20173;-76
2023/12/25 12:50:20;;;;;;;0.50;0.50;;;10.20;99.90;;;;;;5058460;28;20226;-77
2023/12/25 12:52:46;;;;;;;0.60;0.60;;;10.20;99.90;;;;;;5076701;28;20280;-78
2023/12/25 12:55:12;;;;;;;0.60;0.60;;;10.10;99.90;;;;;;5058097;28;20174;-76
2023/12/25 12:57:39;;;;;;;0.70;0.65;;;10.20;99.90;;;;;;5076541;28;20165;-76
2023/12/25 13:00:06;;;;;;;0.43;0.43;;;10.10;99.90;;;;;;5061155;28;20205;-77
2023/12/25 13:02:31;;;;;;;0.47;0.47;;;10.10;99.90;;;;;;5060796;28;20687;-77
2023/12/25 13:04:57;;;;;;;0.45;0.45;;;10.10;99.90;;;;;;5060384;28;20284;-77
2023/12/25 13:07:22;;;;;;;0.55;0.55;;;10.00;99.90;;;;;;5058090;28;20170;-76
2023/12/25 13:09:48;;;;;;;0.50;0.50;;;10.00;99.90;;;;;;5058043;28;20180;-76
2023/12/25 13:12:14;;;;;;;1.73;1.38;;;9.90;99.90;;;;;;5057950;28;20221;-76
2023/12/25 13:14:48;;;;;;;0.80;0.80;;;9.90;99.90;;;;;;5058051;28;20181;-76
2023/12/25 13:17:19;;;;;;;0.40;0.40;;;9.80;99.90;;;;;;5058265;28;20231;-77
2023/12/25 13:19:45;;;;;;;1.02;0.77;;;9.80;99.90;;;;;;5059498;28;20178;-77
2023/12/25 13:23:11;;;;;;;0.85;0.85;;;9.80;99.90;;;;;;5078292;28;20228;-76
2023/12/25 13:25:42;;;;;;;2.67;0.80;;;9.80;99.90;;;;;;5057750;28;20208;-76